Terminal Aerodrome Forecast
Issued by NWS

Home | Current Version | Previous Version | Text Only | Print | Product List | Glossary Off
Versions: 1 2 3 4 5 6 7 8 9 10 11 12

000
FTUS45 KGGW 091750 RRA
TAFOLF
TAF
KOLF 091750Z 0918/1018 27011KT P6SM SKC
     FM092200 28012KT P6SM SKC WS020/31040KT
     FM100300 28009KT P6SM FEW200 WS020/32045KT
     FM101100 26009KT P6SM FEW200=

USA.gov is the U.S. government's official web portal to all federal, state and local government web resources and services.